Time;durP1;ratioP1;P1;durP2;ratioP2;P2;SDS_P1;SDS_P2;PMS_P1;PMS_P2;Temp;Humidity;BMP_temperature;BMP_pressure;BME280_temperature;BME280_humidity;BME280_pressure;Samples;Min_cycle;Max_cycle;Signal;HPM_P1;HPM_P2
2024/02/22 05:06:29;;;;;;;;;71.67;58.00;;;;;;;;5934434;46;10000303;-56
2024/02/22 05:12:33;;;;;;;;;75.33;56.67;;;;;;;;6491648;39;8977;-53
2024/02/22 05:18:37;;;;;;;;;77.00;60.00;;;;;;;;6491207;39;8866;-55
2024/02/22 17:07:01;;;;;;;;;19.50;19.50;;;;;;;;6492064;46;9056;-57
2024/02/22 17:13:04;;;;;;;;;35.75;34.75;;;;;;;;6490580;46;8929;-55
2024/02/22 17:19:06;;;;;;;;;40.25;36.00;;;;;;;;6492159;46;8856;-55
2024/02/22 17:25:09;;;;;;;;;42.00;36.75;;;;;;;;6491711;46;8929;-54
2024/02/22 17:31:12;;;;;;;;;34.50;33.25;;;;;;;;6490739;39;8956;-54
2024/02/22 17:37:14;;;;;;;;;30.50;29.50;;;;;;;;6491584;31;8941;-54
2024/02/22 17:43:18;;;;;;;;;33.25;31.50;;;;;;;;6488735;31;9059;-55
2024/02/22 17:49:20;;;;;;;;;35.75;34.75;;;;;;;;6491203;47;8960;-57
2024/02/22 17:55:23;;;;;;;;;40.25;37.25;;;;;;;;6492626;39;8979;-55
2024/02/22 18:01:25;;;;;;;;;46.00;36.00;;;;;;;;6491487;46;8983;-55
2024/02/22 18:07:29;;;;;;;;;38.75;37.00;;;;;;;;6493195;31;9540;-55
2024/02/22 18:13:32;;;;;;;;;34.50;30.25;;;;;;;;6491544;46;9008;-57
2024/02/22 18:19:34;;;;;;;;;38.50;34.25;;;;;;;;6492491;39;8917;-54
2024/02/22 18:25:38;;;;;;;;;41.50;37.25;;;;;;;;6491222;46;8889;-57
2024/02/22 18:31:40;;;;;;;;;34.50;34.50;;;;;;;;6492182;39;8865;-56
2024/02/22 18:37:43;;;;;;;;;47.50;40.50;;;;;;;;6493012;31;8962;-55
2024/02/22 18:43:45;;;;;;;;;43.00;40.50;;;;;;;;6491241;39;8901;-54
2024/02/22 18:49:48;;;;;;;;;50.00;41.75;;;;;;;;6492405;39;8845;-55
2024/02/22 18:55:51;;;;;;;;;55.25;44.50;;;;;;;;6491036;39;9028;-54
2024/02/22 19:01:53;;;;;;;;;47.50;41.75;;;;;;;;6492097;39;8956;-56
2024/02/22 19:07:58;;;;;;;;;49.75;43.75;;;;;;;;6494108;39;8959;-56
2024/02/22 19:14:01;;;;;;;;;62.75;48.50;;;;;;;;6493435;46;8909;-55
2024/02/22 19:20:05;;;;;;;;;61.00;51.25;;;;;;;;6494287;39;8857;-58
2024/02/22 19:26:08;;;;;;;;;63.00;53.25;;;;;;;;6493265;39;9032;-54
2024/02/22 19:32:10;;;;;;;;;70.75;56.00;;;;;;;;6493958;39;8864;-57
2024/02/22 19:38:20;;;;;;;;;71.50;56.00;;;;;;;;6494480;39;8869;-53
2024/02/22 19:44:23;;;;;;;;;67.25;55.00;;;;;;;;6492909;46;8909;-58
2024/02/22 19:50:27;;;;;;;;;76.00;56.00;;;;;;;;6494355;46;8952;-55
2024/02/22 19:56:29;;;;;;;;;64.00;53.25;;;;;;;;6493992;31;8997;-55
2024/02/22 20:02:33;;;;;;;;;68.00;56.00;;;;;;;;6493687;46;8932;-53
2024/02/22 20:08:35;;;;;;;;;63.75;49.75;;;;;;;;6493339;39;8857;-52
2024/02/22 20:14:38;;;;;;;;;66.50;53.25;;;;;;;;6491390;46;8900;-57
2024/02/22 20:20:44;;;;;;;;;68.00;54.50;;;;;;;;6493210;46;8872;-55
2024/02/22 20:26:46;;;;;;;;;68.25;54.25;;;;;;;;6491484;46;8904;-59
2024/02/22 20:32:49;;;;;;;;;63.25;53.25;;;;;;;;6494000;31;8901;-54
2024/02/22 20:38:51;;;;;;;;;78.50;60.75;;;;;;;;6492171;39;8955;-55
2024/02/22 20:44:53;;;;;;;;;80.00;64.00;;;;;;;;6492762;31;8853;-52
2024/02/22 20:50:55;;;;;;;;;80.25;63.50;;;;;;;;6493750;31;8853;-55
2024/02/22 20:57:01;;;;;;;;;68.00;55.25;;;;;;;;6491861;46;8909;-53
2024/02/22 21:03:06;;;;;;;;;69.50;57.25;;;;;;;;6492046;31;9084;-49
2024/02/22 21:09:10;;;;;;;;;70.25;56.75;;;;;;;;6491190;46;8881;-56
2024/02/22 21:15:12;;;;;;;;;62.50;49.50;;;;;;;;6489852;39;8877;-54
2024/02/22 21:21:14;;;;;;;;;66.00;53.25;;;;;;;;6490794;39;8927;-51
2024/02/22 21:27:16;;;;;;;;;66.75;54.75;;;;;;;;6490094;46;8939;-54
2024/02/22 21:33:20;;;;;;;;;66.00;53.00;;;;;;;;6490994;46;8955;-52
2024/02/22 21:39:23;;;;;;;;;68.00;54.75;;;;;;;;6490883;39;8873;-56
2024/02/22 21:45:29;;;;;;;;;68.00;56.25;;;;;;;;6490836;39;8889;-51
2024/02/22 21:51:32;;;;;;;;;66.75;53.50;;;;;;;;6490532;39;8892;-51
2024/02/22 21:57:34;;;;;;;;;68.75;54.50;;;;;;;;6490417;46;8913;-50
2024/02/22 22:03:38;;;;;;;;;63.75;50.00;;;;;;;;6489869;39;8944;-56
2024/02/22 22:09:41;;;;;;;;;49.25;39.25;;;;;;;;6489076;39;8861;-53
2024/02/22 22:15:44;;;;;;;;;65.50;51.00;;;;;;;;6489545;39;8945;-53
2024/02/22 22:21:46;;;;;;;;;60.50;50.75;;;;;;;;6489003;39;8885;-53
2024/02/22 22:27:48;;;;;;;;;62.00;49.75;;;;;;;;6489010;31;8880;-53
2024/02/22 22:33:50;;;;;;;;;57.25;49.75;;;;;;;;6489645;31;8893;-52
2024/02/22 22:39:53;;;;;;;;;66.25;52.00;;;;;;;;6489404;31;8960;-49
2024/02/22 22:45:55;;;;;;;;;62.00;52.25;;;;;;;;6489658;39;8984;-51
2024/02/22 22:51:59;;;;;;;;;56.50;47.25;;;;;;;;6488474;46;8877;-53
2024/02/22 22:58:01;;;;;;;;;57.00;46.25;;;;;;;;6489149;39;8913;-53
2024/02/22 23:04:03;;;;;;;;;52.50;42.25;;;;;;;;6489353;39;9035;-56
2024/02/22 23:10:07;;;;;;;;;52.75;37.50;;;;;;;;6488097;47;8896;-52
2024/02/22 23:16:09;;;;;;;;;55.25;43.50;;;;;;;;6488540;39;9584;-51
2024/02/22 23:22:11;;;;;;;;;55.00;45.25;;;;;;;;6487225;39;8881;-55
2024/02/22 23:28:14;;;;;;;;;52.25;44.75;;;;;;;;6487306;31;8932;-53
2024/02/22 23:34:17;;;;;;;;;46.00;41.50;;;;;;;;6487569;39;9025;-52
2024/02/22 23:40:19;;;;;;;;;48.50;40.00;;;;;;;;6487887;39;8877;-54
2024/02/22 23:46:21;;;;;;;;;51.25;41.75;;;;;;;;6487497;39;8892;-54
2024/02/22 23:52:23;;;;;;;;;47.00;42.00;;;;;;;;6487769;31;8896;-53
2024/02/22 23:58:26;;;;;;;;;53.25;44.25;;;;;;;;6489797;31;9011;-55
